Time;durP1;ratioP1;P1;durP2;ratioP2;P2;SDS_P1;SDS_P2;PMS_P1;PMS_P2;Temp;Humidity;BMP_temperature;BMP_pressure;BME280_temperature;BME280_humidity;BME280_pressure;Samples;Min_cycle;Max_cycle;Signal;HPM_P1;HPM_P2
2021/09/24 00:01:08;;;;;;;;;;;;;;;11.40;69.88;96792.06;5112458;28;19960;-79
2021/09/24 00:03:37;;;;;;;;;;;;;;;11.36;70.25;96797.78;5096246;28;19961;-79
2021/09/24 00:06:03;;;;;;;;;;;;;;;11.34;70.13;96791.94;5102696;28;20489;-79
2021/09/24 00:08:29;;;;;;;;;;;;;;;11.31;70.21;96800.22;5107457;28;19959;-81
2021/09/24 00:10:55;;;;;;;;;;;;;;;11.30;70.81;96795.19;5106663;28;19970;-80
2021/09/24 00:13:21;;;;;;;;;;;;;;;11.26;70.50;96786.94;5106468;28;19959;-80
2021/09/24 00:15:47;;;;;;;;;;;;;;;11.23;70.76;96797.06;5105746;28;20054;-80
2021/09/24 00:18:13;;;;;;;;;;;;;;;11.20;70.27;96789.63;5105170;28;19953;-80
2021/09/24 00:20:39;;;;;;;;;;;;;;;11.15;69.91;96777.13;5100008;28;19994;-81
2021/09/24 00:23:05;;;;;;;;;;;;;;;11.09;70.49;96788.50;5106177;28;20006;-80
2021/09/24 00:25:31;;;;;;;;;;;;;;;11.05;70.19;96789.94;5108725;28;20323;-82
2021/09/24 00:28:03;;;;;;;;;;;;;;;11.01;70.61;96792.16;5105245;28;19954;-82
2021/09/24 00:30:29;;;;;;;;;;;;;;;10.97;70.23;96783.09;5086330;28;20331;-81
2021/09/24 00:32:54;;;;;;;;;;;;;;;10.95;70.50;96787.75;5102351;28;20069;-80
2021/09/24 00:35:20;;;;;;;;;;;;;;;10.93;70.68;96793.22;5106930;28;20068;-81
2021/09/24 00:37:46;;;;;;;;;;;;;;;10.90;70.88;96787.59;5108012;28;19959;-81
2021/09/24 00:40:12;;;;;;;;;;;;;;;10.88;71.02;96794.88;5104565;28;19962;-81
2021/09/24 00:42:38;;;;;;;;;;;;;;;10.87;71.25;96793.25;5106642;28;19958;-81
2021/09/24 00:45:05;;;;;;;;;;;;;;;10.86;71.79;96789.03;5102438;28;20401;-80
2021/09/24 00:47:31;;;;;;;;;;;;;;;10.86;71.90;96778.53;5104930;28;20427;-79
2021/09/24 00:49:57;;;;;;;;;;;;;;;10.86;71.73;96770.66;5104260;28;19966;-81
2021/09/24 00:52:23;;;;;;;;;;;;;;;10.86;72.13;96781.16;5103150;28;19973;-80
2021/09/24 00:54:50;;;;;;;;;;;;;;;10.85;72.24;96780.34;5111017;28;19947;-80
2021/09/24 00:57:17;;;;;;;;;;;;;;;10.82;72.07;96772.09;5103439;28;19951;-80
2021/09/24 00:59:43;;;;;;;;;;;;;;;10.79;71.94;96770.69;5104747;28;20414;-80
2021/09/24 01:02:09;;;;;;;;;;;;;;;10.76;71.84;96761.41;5102649;28;20008;-80
2021/09/24 01:04:35;;;;;;;;;;;;;;;10.75;71.98;96759.00;5103406;28;19974;-80
2021/09/24 01:07:02;;;;;;;;;;;;;;;10.74;72.22;96762.66;5104295;28;19987;-80
2021/09/24 01:09:29;;;;;;;;;;;;;;;10.70;72.40;96761.47;5107375;28;19955;-83
2021/09/24 01:11:55;;;;;;;;;;;;;;;10.67;72.10;96756.66;5098655;28;19983;-83
2021/09/24 01:14:21;;;;;;;;;;;;;;;10.62;72.50;96752.00;5102816;28;19963;-82
2021/09/24 01:16:47;;;;;;;;;;;;;;;10.58;72.09;96756.06;5104912;28;19961;-82
2021/09/24 01:19:13;;;;;;;;;;;;;;;10.55;71.85;96740.78;5086123;28;20041;-81
2021/09/24 01:21:42;;;;;;;;;;;;;;;10.52;71.84;96738.53;5105323;28;20047;-81
2021/09/24 01:24:09;;;;;;;;;;;;;;;10.49;72.87;96754.72;5103079;28;20350;-81
2021/09/24 01:26:35;;;;;;;;;;;;;;;10.45;72.39;96754.31;5102318;28;19957;-84
2021/09/24 01:29:02;;;;;;;;;;;;;;;10.43;72.27;96763.41;5104513;28;19962;-83
2021/09/24 01:31:27;;;;;;;;;;;;;;;10.42;72.29;96765.25;5102756;28;19966;-82
2021/09/24 01:33:53;;;;;;;;;;;;;;;10.42;72.85;96764.44;5064421;28;20039;-84
2021/09/24 01:36:19;;;;;;;;;;;;;;;10.43;73.55;96761.59;5090258;28;20050;-82
2021/09/24 01:38:45;;;;;;;;;;;;;;;10.45;73.60;96764.00;5101872;28;20003;-82
2021/09/24 01:41:11;;;;;;;;;;;;;;;10.44;73.47;96765.84;5104507;28;19954;-83
2021/09/24 01:43:37;;;;;;;;;;;;;;;10.45;73.49;96767.44;5103821;28;20293;-81
2021/09/24 01:46:03;;;;;;;;;;;;;;;10.44;73.33;96773.69;5110274;28;19955;-82
2021/09/24 01:48:29;;;;;;;;;;;;;;;10.42;73.71;96777.56;5108177;28;19948;-82
2021/09/24 01:50:55;;;;;;;;;;;;;;;10.38;73.40;96771.91;5102768;28;20011;-82
2021/09/24 01:53:21;;;;;;;;;;;;;;;10.36;73.10;96774.72;5101356;28;19975;-81
2021/09/24 01:55:47;;;;;;;;;;;;;;;10.34;73.44;96776.75;5102909;28;19953;-83
2021/09/24 01:58:13;;;;;;;;;;;;;;;10.32;73.17;96778.78;5108783;28;19953;-81
2021/09/24 02:00:40;;;;;;;;;;;;;;;10.30;73.39;96780.81;5103914;28;20048;-80
2021/09/24 02:03:06;;;;;;;;;;;;;;;10.29;73.31;96781.84;5104143;28;19960;-80
2021/09/24 02:05:31;;;;;;;;;;;;;;;10.26;73.19;96774.34;5102321;28;20025;-80
2021/09/24 02:07:57;;;;;;;;;;;;;;;10.26;73.70;96766.47;5102318;28;19959;-80
2021/09/24 02:10:23;;;;;;;;;;;;;;;10.24;73.64;96775.56;5101509;28;19967;-80
2021/09/24 02:12:49;;;;;;;;;;;;;;;10.21;73.50;96776.78;5107267;28;20020;-81
2021/09/24 02:15:15;;;;;;;;;;;;;;;10.19;73.40;96768.31;5103911;28;19955;-82
2021/09/24 02:17:42;;;;;;;;;;;;;;;10.18;73.68;96769.31;5101598;28;19942;-82
2021/09/24 02:20:08;;;;;;;;;;;;;;;10.15;73.46;96765.31;5103253;28;20316;-82
2021/09/24 02:22:34;;;;;;;;;;;;;;;10.12;73.45;96770.16;5104096;28;19961;-82
2021/09/24 02:25:00;;;;;;;;;;;;;;;10.08;73.46;96777.63;5107648;28;19961;-82
2021/09/24 02:27:26;;;;;;;;;;;;;;;10.05;73.79;96774.63;5103535;28;19955;-82
2021/09/24 02:29:52;;;;;;;;;;;;;;;10.04;73.80;96775.63;5099997;28;19949;-82
2021/09/24 02:32:18;;;;;;;;;;;;;;;10.01;73.54;96771.59;5108339;28;19983;-82
2021/09/24 02:34:43;;;;;;;;;;;;;;;10.01;73.65;96768.19;5107010;28;20003;-83
2021/09/24 02:37:09;;;;;;;;;;;;;;;9.99;73.79;96767.56;5102443;28;19961;-82
2021/09/24 02:39:35;;;;;;;;;;;;;;;9.96;74.06;96763.56;5101016;28;19949;-82
2021/09/24 02:42:02;;;;;;;;;;;;;;;9.93;73.77;96767.41;5084987;28;20393;-83
2021/09/24 02:44:29;;;;;;;;;;;;;;;9.93;74.03;96766.56;5106593;28;19982;-83
2021/09/24 02:46:54;;;;;;;;;;;;;;;9.91;73.66;96766.81;5104479;28;19961;-82
2021/09/24 02:49:20;;;;;;;;;;;;;;;9.90;73.42;96762.56;5103220;28;20047;-81
2021/09/24 02:51:46;;;;;;;;;;;;;;;9.90;74.03;96764.38;5098049;28;19969;-83
2021/09/24 02:54:12;;;;;;;;;;;;;;;9.89;73.95;96755.72;5103710;28;20376;-82
2021/09/24 02:56:38;;;;;;;;;;;;;;;9.88;73.94;96750.69;5105157;28;19952;-82
2021/09/24 02:59:04;;;;;;;;;;;;;;;9.88;74.36;96748.06;5103071;28;20007;-84
2021/09/24 03:01:30;;;;;;;;;;;;;;;9.87;74.44;96749.06;5102614;28;20029;-84
2021/09/24 03:03:56;;;;;;;;;;;;;;;9.87;74.92;96756.91;5103957;28;19951;-82
2021/09/24 03:06:22;;;;;;;;;;;;;;;9.84;74.70;96755.50;5103378;28;19977;-82
2021/09/24 03:08:47;;;;;;;;;;;;;;;9.83;74.48;96755.75;5105343;28;19954;-82
2021/09/24 03:11:13;;;;;;;;;;;;;;;9.82;74.59;96757.53;5100389;28;19955;-82
2021/09/24 03:13:39;;;;;;;;;;;;;;;9.79;74.44;96755.34;5101026;28;20457;-83
2021/09/24 03:16:05;;;;;;;;;;;;;;;9.79;74.19;96755.34;5107696;28;19985;-82
2021/09/24 03:18:31;;;;;;;;;;;;;;;9.79;74.49;96757.16;5103140;28;20331;-83
2021/09/24 03:20:57;;;;;;;;;;;;;;;9.78;74.53;96758.94;5100737;28;19955;-82
2021/09/24 03:23:23;;;;;;;;;;;;;;;9.75;74.61;96756.75;5103605;28;19957;-82
2021/09/24 03:25:49;;;;;;;;;;;;;;;9.70;74.66;96754.75;5104404;28;19997;-83
2021/09/24 03:28:15;;;;;;;;;;;;;;;9.66;74.79;96758.78;5107592;28;19962;-82
2021/09/24 03:30:42;;;;;;;;;;;;;;;9.64;74.43;96755.56;5098804;28;19948;-82
2021/09/24 03:33:07;;;;;;;;;;;;;;;9.63;74.30;96759.19;5104380;28;20343;-82
2021/09/24 03:35:33;;;;;;;;;;;;;;;9.62;74.50;96762.81;5087242;28;19973;-81
2021/09/24 03:37:59;;;;;;;;;;;;;;;9.62;75.13;96757.59;5089760;28;20410;-82
2021/09/24 03:40:25;;;;;;;;;;;;;;;9.63;75.07;96747.91;5101809;28;19946;-81
2021/09/24 03:42:51;;;;;;;;;;;;;;;9.63;75.13;96746.09;5107829;28;20370;-81
2021/09/24 03:45:17;;;;;;;;;;;;;;;9.64;75.60;96745.09;5109977;28;20049;-80
2021/09/24 03:47:43;;;;;;;;;;;;;;;9.65;75.82;96743.28;5100830;28;20048;-80
2021/09/24 03:50:09;;;;;;;;;;;;;;;9.65;75.36;96751.13;5106440;28;20066;-83
2021/09/24 03:52:35;;;;;;;;;;;;;;;9.63;75.09;96751.31;5087096;28;19977;-80
2021/09/24 03:55:02;;;;;;;;;;;;;;;9.63;75.14;96748.72;5109436;28;19954;-80
2021/09/24 03:57:28;;;;;;;;;;;;;;;9.60;75.46;96749.13;5103758;28;19943;-80
2021/09/24 03:59:55;;;;;;;;;;;;;;;9.57;75.27;96744.28;5104193;28;20426;-80
2021/09/24 04:02:20;;;;;;;;;;;;;;;9.58;75.64;96751.16;5108896;28;19958;-81
2021/09/24 04:04:47;;;;;;;;;;;;;;;9.57;75.68;96746.91;5107108;28;20440;-80
2021/09/24 04:07:13;;;;;;;;;;;;;;;9.56;75.65;96747.94;5100387;28;19956;-80
2021/09/24 04:09:38;;;;;;;;;;;;;;;9.57;75.61;96749.53;5107870;28;20322;-80
2021/09/24 04:12:05;;;;;;;;;;;;;;;9.58;76.06;96756.38;5108046;28;19969;-80
2021/09/24 04:14:30;;;;;;;;;;;;;;;9.60;76.11;96748.34;5104624;28;20323;-81
2021/09/24 04:16:56;;;;;;;;;;;;;;;9.58;76.06;96756.38;5104166;28;19961;-81
2021/09/24 04:19:23;;;;;;;;;;;;;;;9.58;75.97;96752.97;5109827;28;19950;-81
2021/09/24 04:21:49;;;;;;;;;;;;;;;9.53;75.68;96751.75;5104025;28;20543;-81
2021/09/24 04:24:15;;;;;;;;;;;;;;;9.50;75.66;96746.91;5102945;28;19960;-80
2021/09/24 04:26:41;;;;;;;;;;;;;;;9.51;75.94;96755.56;5103156;28;20325;-80
2021/09/24 04:29:07;;;;;;;;;;;;;;;9.49;75.87;96752.34;5107441;28;19985;-81
2021/09/24 04:31:33;;;;;;;;;;;;;;;9.47;75.99;96751.75;5108895;28;19954;-81
2021/09/24 04:33:59;;;;;;;;;;;;;;;9.47;75.88;96759.59;5098878;28;19970;-81
2021/09/24 04:36:25;;;;;;;;;;;;;;;9.45;75.78;96749.34;5111971;28;19967;-81
2021/09/24 04:38:51;;;;;;;;;;;;;;;9.44;76.78;96746.94;5105838;28;19964;-80
2021/09/24 04:41:17;;;;;;;;;;;;;;;9.41;76.85;96756.00;5096210;28;19965;-80
2021/09/24 04:43:43;;;;;;;;;;;;;;;9.39;76.40;96755.41;5108331;28;19982;-81
2021/09/24 04:46:09;;;;;;;;;;;;;;;9.37;75.98;96748.75;5071790;28;19955;-82
2021/09/24 04:48:35;;;;;;;;;;;;;;;9.32;75.70;96752.78;5103713;28;20297;-81
2021/09/24 04:51:13;;;;;;;;;;;;;;;9.29;75.36;96750.56;5090212;28;19966;-82
2021/09/24 04:53:39;;;;;;;;;;;;;;;9.25;75.03;96749.34;5091385;28;20329;-82
2021/09/24 04:56:05;;;;;;;;;;;;;;;9.22;75.25;96754.16;5090420;28;19976;-82
2021/09/24 04:58:32;;;;;;;;;;;;;;;9.19;75.19;96752.75;5090058;28;20438;-82
2021/09/24 05:00:57;;;;;;;;;;;;;;;9.20;75.60;96753.56;5089685;28;19945;-82
2021/09/24 05:03:23;;;;;;;;;;;;;;;9.20;75.42;96757.00;5090379;28;19959;-82
2021/09/24 05:05:49;;;;;;;;;;;;;;;9.21;75.82;96758.59;5090694;28;19958;-82
2021/09/24 05:08:15;;;;;;;;;;;;;;;9.23;76.20;96761.03;5089417;28;20336;-82
2021/09/24 05:10:41;;;;;;;;;;;;;;;9.23;76.40;96759.22;5089951;28;19972;-82
2021/09/24 05:13:07;;;;;;;;;;;;;;;9.24;77.00;96763.47;5090974;28;19954;-84
2021/09/24 05:15:33;;;;;;;;;;;;;;;9.23;77.94;96767.06;5090115;28;19958;-84
2021/09/24 05:17:59;;;;;;;;;;;;;;;9.24;76.82;96766.06;5089605;28;20414;-84
2021/09/24 05:20:26;;;;;;;;;;;;;;;9.25;77.13;96762.44;5089761;28;20415;-84
2021/09/24 05:22:55;;;;;;;;;;;;;;;9.27;76.83;96768.28;5090441;28;19960;-84
2021/09/24 05:25:22;;;;;;;;;;;;;;;9.29;77.34;96766.25;5090305;28;19957;-84
2021/09/24 05:27:48;;;;;;;;;;;;;;;9.31;76.88;96763.44;5090131;28;19950;-84
2021/09/24 05:30:14;;;;;;;;;;;;;;;9.31;77.48;96766.06;5089740;28;20006;-83
2021/09/24 05:32:40;;;;;;;;;;;;;;;9.33;76.92;96764.06;5089486;28;19960;-82
2021/09/24 05:35:07;;;;;;;;;;;;;;;9.34;77.05;96776.94;5090478;28;20030;-83
2021/09/24 05:37:33;;;;;;;;;;;;;;;9.35;76.83;96775.13;5090319;28;19953;-82
2021/09/24 05:39:59;;;;;;;;;;;;;;;9.37;76.99;96772.31;5090040;28;19952;-82
2021/09/24 05:42:25;;;;;;;;;;;;;;;9.35;76.83;96768.06;5089584;28;20446;-82
2021/09/24 05:44:51;;;;;;;;;;;;;;;9.38;76.75;96774.72;5089666;28;19990;-80
2021/09/24 05:47:17;;;;;;;;;;;;;;;9.42;76.82;96769.88;5088781;28;20411;-82
2021/09/24 05:49:43;;;;;;;;;;;;;;;9.63;76.87;96761.00;5089506;28;19976;-83
2021/09/24 05:52:09;;;;;;;;;;;;;;;10.05;76.43;96767.56;5089292;28;19951;-82
2021/09/24 05:54:35;;;;;;;;;;;;;;;10.65;75.19;96762.09;5089805;28;19967;-82
2021/09/24 05:57:00;;;;;;;;;;;;;;;11.23;73.85;96763.72;5088868;28;19967;-82
2021/09/24 05:59:26;;;;;;;;;;;;;;;11.76;72.25;96758.03;5089581;28;19961;-82
2021/09/24 06:01:52;;;;;;;;;;;;;;;12.20;70.55;96760.63;5079568;28;19965;-82
2021/09/24 06:04:19;;;;;;;;;;;;;;;12.57;69.70;96761.38;5076403;28;20312;-82
2021/09/24 06:06:45;;;;;;;;;;;;;;;12.87;68.51;96752.69;5076203;28;19956;-82
2021/09/24 06:09:11;;;;;;;;;;;;;;;13.15;67.67;96757.31;5075082;28;19983;-82
2021/09/24 06:11:37;;;;;;;;;;;;;;;13.37;66.76;96752.31;5075443;28;19961;-82
2021/09/24 06:14:04;;;;;;;;;;;;;;;13.56;65.88;96754.84;5075621;28;20059;-82
2021/09/24 06:16:30;;;;;;;;;;;;;;;13.73;65.50;96752.34;5075433;28;19963;-82
2021/09/24 06:18:56;;;;;;;;;;;;;;;13.84;65.29;96748.91;5075879;28;20413;-82
2021/09/24 06:21:22;;;;;;;;;;;;;;;13.93;64.76;96747.50;5075043;28;20457;-82
2021/09/24 06:23:47;;;;;;;;;;;;;;;14.04;64.66;96745.09;5075722;28;20049;-82
2021/09/24 06:26:13;;;;;;;;;;;;;;;14.13;64.28;96746.31;5075286;28;19954;-82
2021/09/24 06:28:39;;;;;;;;;;;;;;;14.20;64.27;96744.38;5075644;28;20412;-82
2021/09/24 06:31:05;;;;;;;;;;;;;;;14.29;64.00;96735.03;5075564;28;19979;-82
2021/09/24 06:33:32;;;;;;;;;;;;;;;14.27;63.90;96747.66;5075533;28;19955;-82
2021/09/24 06:35:58;;;;;;;;;;;;;;;14.31;64.05;96748.00;5075484;28;19963;-82
2021/09/24 06:38:24;;;;;;;;;;;;;;;14.35;64.06;96739.38;5076074;28;19956;-82
2021/09/24 06:40:49;;;;;;;;;;;;;;;14.38;64.07;96744.22;5075735;28;19953;-82
2021/09/24 06:43:16;;;;;;;;;;;;;;;14.24;63.80;96740.25;5075444;28;20353;-82
2021/09/24 06:45:42;;;;;;;;;;;;;;;14.21;64.34;96756.50;5074969;28;19958;-82
2021/09/24 06:48:08;;;;;;;;;;;;;;;14.27;64.57;96754.78;5075360;28;19958;-83
2021/09/24 06:50:34;;;;;;;;;;;;;;;14.27;64.81;96752.16;5075377;28;19986;-82
2021/09/24 06:53:00;;;;;;;;;;;;;;;14.16;64.77;96761.69;5075544;28;19960;-82
2021/09/24 06:55:27;;;;;;;;;;;;;;;14.04;65.31;96763.56;5075587;28;19960;-82
2021/09/24 06:57:53;;;;;;;;;;;;;;;14.00;66.07;96769.28;5075374;28;20419;-82
2021/09/24 07:00:19;;;;;;;;;;;;;;;14.04;66.15;96772.25;5075744;28;19956;-81
2021/09/24 07:02:45;;;;;;;;;;;;;;;14.22;66.16;96760.78;5075049;28;19957;-81
2021/09/24 07:05:11;;;;;;;;;;;;;;;14.46;65.50;96763.34;5075552;28;19974;-82
2021/09/24 07:07:38;;;;;;;;;;;;;;;14.52;65.18;96770.31;5075186;28;19959;-82
2021/09/24 07:10:04;;;;;;;;;;;;;;;14.53;64.95;96769.28;5075024;28;19956;-82
2021/09/24 07:12:30;;;;;;;;;;;;;;;14.59;65.03;96774.47;5074172;28;19960;-82
2021/09/24 07:14:56;;;;;;;;;;;;;;;14.62;65.34;96773.19;5074099;28;20383;-81
2021/09/24 07:17:22;;;;;;;;;;;;;;;14.71;65.87;96779.69;5075135;28;19951;-82
2021/09/24 07:19:48;;;;;;;;;;;;;;;14.78;65.26;96769.78;5075089;28;20381;-82
2021/09/24 07:22:15;;;;;;;;;;;;;;;14.82;65.09;96765.66;5075288;28;20021;-82
2021/09/24 07:24:41;;;;;;;;;;;;;;;14.96;64.73;96767.97;5074890;28;19961;-82
2021/09/24 07:27:07;;;;;;;;;;;;;;;14.93;65.05;96769.25;5074788;28;19962;-82
2021/09/24 07:29:33;;;;;;;;;;;;;;;14.92;64.82;96759.72;5074717;28;19952;-81
2021/09/24 07:31:59;;;;;;;;;;;;;;;14.93;64.71;96766.63;5073479;28;20450;-81
2021/09/24 07:34:25;;;;;;;;;;;;;;;15.07;65.38;96775.03;5074831;28;20414;-81
2021/09/24 07:36:51;;;;;;;;;;;;;;;15.21;63.95;96767.63;5074800;28;20370;-81
2021/09/24 07:39:17;;;;;;;;;;;;;;;15.26;64.70;96772.19;5074607;28;19957;-81
2021/09/24 07:41:43;;;;;;;;;;;;;;;15.43;64.33;96767.69;5074305;28;19966;-81
2021/09/24 07:44:09;;;;;;;;;;;;;;;15.60;63.74;96773.78;5074377;28;19959;-81
2021/09/24 07:46:35;;;;;;;;;;;;;;;15.74;63.00;96771.63;5074411;28;19963;-81
2021/09/24 07:49:02;;;;;;;;;;;;;;;15.78;62.70;96758.72;5074362;28;19971;-80
2021/09/24 07:51:28;;;;;;;;;;;;;;;15.85;62.83;96766.47;5074695;28;19981;-81
2021/09/24 07:53:55;;;;;;;;;;;;;;;15.89;62.63;96767.59;5074264;28;20043;-81
2021/09/24 07:56:22;;;;;;;;;;;;;;;15.97;63.92;96783.06;5073955;28;19958;-80
2021/09/24 07:58:47;;;;;;;;;;;;;;;16.02;62.04;96761.94;5074235;28;19985;-81
2021/09/24 08:01:13;;;;;;;;;;;;;;;15.89;61.94;96771.03;5074812;28;19955;-81
2021/09/24 08:03:39;;;;;;;;;;;;;;;15.78;62.42;96778.03;5074284;28;19961;-81
2021/09/24 08:06:06;;;;;;;;;;;;;;;15.76;63.45;96779.31;5073980;28;20359;-81
2021/09/24 08:08:32;;;;;;;;;;;;;;;15.89;64.07;96786.91;5073919;28;20317;-81
2021/09/24 08:10:58;;;;;;;;;;;;;;;15.98;63.40;96782.81;5073627;28;19968;-81
2021/09/24 08:13:24;;;;;;;;;;;;;;;16.16;63.49;96781.72;5074051;28;19971;-80
2021/09/24 08:15:51;;;;;;;;;;;;;;;16.31;63.69;96783.75;5074340;28;19952;-81
2021/09/24 08:18:17;;;;;;;;;;;;;;;16.45;62.91;96776.25;5073603;28;19958;-81
2021/09/24 08:20:44;;;;;;;;;;;;;;;16.62;62.40;96774.31;5074088;28;19957;-81
2021/09/24 08:23:10;;;;;;;;;;;;;;;16.66;61.85;96772.00;5072365;28;19966;-81
2021/09/24 08:25:36;;;;;;;;;;;;;;;16.62;61.92;96769.03;5073721;28;20334;-79
2021/09/24 08:28:03;;;;;;;;;;;;;;;16.67;62.33;96773.56;5073819;28;20416;-78
2021/09/24 08:30:30;;;;;;;;;;;;;;;16.66;62.31;96771.19;5073887;28;19982;-78
2021/09/24 08:32:56;;;;;;;;;;;;;;;16.63;62.77;96778.59;5072240;28;19953;-78
2021/09/24 08:35:22;;;;;;;;;;;;;;;16.69;62.67;96774.13;5073747;28;19960;-81
2021/09/24 08:37:49;;;;;;;;;;;;;;;16.71;63.14;96781.84;5073478;28;19957;-81
2021/09/24 08:40:17;;;;;;;;;;;;;;;16.69;63.44;96779.44;5073716;28;19956;-81
2021/09/24 08:42:43;;;;;;;;;;;;;;;16.70;63.64;96773.09;5073601;28;19958;-81
2021/09/24 08:45:10;;;;;;;;;;;;;;;16.69;63.70;96774.13;5073372;28;19963;-81
2021/09/24 08:47:36;;;;;;;;;;;;;;;16.68;64.82;96788.44;5073319;28;19975;-81
2021/09/24 08:50:06;;;;;;;;;;;;;;;16.79;64.59;96782.19;5073123;28;20368;-80
2021/09/24 08:52:32;;;;;;;;;;;;;;;16.86;64.05;96781.22;5073453;28;19959;-81
2021/09/24 08:54:58;;;;;;;;;;;;;;;16.95;63.87;96782.38;5073255;28;19958;-81
2021/09/24 08:57:24;;;;;;;;;;;;;;;16.98;63.93;96782.66;5073231;28;20049;-80
2021/09/24 08:59:50;;;;;;;;;;;;;;;17.05;65.14;96782.50;5073520;28;19958;-79
2021/09/24 09:02:16;;;;;;;;;;;;;;;17.15;63.91;96776.47;5073284;28;19956;-80
2021/09/24 09:04:44;;;;;;;;;;;;;;;17.26;65.00;96786.13;5072132;28;19955;-80
2021/09/24 09:07:12;;;;;;;;;;;;;;;17.28;63.68;96777.91;5072904;28;19966;-81
2021/09/24 09:09:39;;;;;;;;;;;;;;;17.27;63.82;96782.41;5073472;28;19958;-81
2021/09/24 09:12:17;;;;;;;;;;;;;;;17.33;64.54;96781.41;5071943;28;19956;-83
2021/09/24 09:14:55;;;;;;;;;;;;;;;17.37;64.83;96787.78;5073242;28;19963;-81
2021/09/24 09:17:29;;;;;;;;;;;;;;;17.41;63.99;96783.59;5072706;28;19947;-81
2021/09/24 09:20:06;;;;;;;;;;;;;;;17.41;64.94;96783.59;5073791;28;19956;-81
2021/09/24 09:22:33;;;;;;;;;;;;;;;17.47;64.45;96780.97;5058870;28;19955;-80
2021/09/24 09:24:59;;;;;;;;;;;;;;;17.49;63.83;96770.91;5073457;28;19954;-80
2021/09/24 09:27:27;;;;;;;;;;;;;;;17.50;64.28;96778.63;5072874;28;19963;-81
2021/09/24 09:29:56;;;;;;;;;;;;;;;17.55;63.29;96764.59;5072003;28;20371;-80
2021/09/24 09:32:23;;;;;;;;;;;;;;;17.52;62.99;96765.13;5073246;28;19948;-81
2021/09/24 09:34:49;;;;;;;;;;;;;;;17.48;63.44;96775.41;5073537;28;20393;-80
2021/09/24 09:37:16;;;;;;;;;;;;;;;17.45;62.58;96768.00;5075834;28;19963;-80
2021/09/24 09:39:42;;;;;;;;;;;;;;;17.47;62.68;96757.94;5076792;28;19963;-81
2021/09/24 09:42:08;;;;;;;;;;;;;;;17.53;63.10;96767.50;5076882;28;19972;-81
2021/09/24 09:44:35;;;;;;;;;;;;;;;17.60;64.04;96772.59;5076533;28;20453;-81
2021/09/24 09:47:01;;;;;;;;;;;;;;;17.65;62.41;96759.34;5075750;28;19959;-80
2021/09/24 09:49:28;;;;;;;;;;;;;;;17.69;62.76;96763.09;5077143;28;20026;-80
2021/09/24 09:52:08;;;;;;;;;;;;;;;17.73;62.00;96747.47;5076458;28;19980;-81
2021/09/24 09:54:34;;;;;;;;;;;;;;;17.77;62.34;96756.53;5076433;28;20331;-81
2021/09/24 09:57:10;;;;;;;;;;;;;;;17.82;62.50;96753.91;5075873;28;19966;-82
2021/09/24 09:59:36;;;;;;;;;;;;;;;17.90;62.85;96752.66;5076966;28;19964;-82
2021/09/24 10:02:12;;;;;;;;;;;;;;;17.96;62.02;96749.75;5076364;28;19954;-82
2021/09/24 10:04:39;;;;;;;;;;;;;;;18.01;61.28;96743.69;5076175;28;19959;-82
2021/09/24 10:07:15;;;;;;;;;;;;;;;18.02;60.40;96730.16;5076320;28;19950;-83
2021/09/24 10:09:42;;;;;;;;;;;;;;;18.07;61.02;96736.56;5061204;28;19960;-82
2021/09/24 10:12:34;;;;;;;;;;;;;;;18.13;60.97;96735.53;5075952;28;19980;-82
2021/09/24 10:15:00;;;;;;;;;;;;;;;18.23;60.86;96738.22;5074974;28;19952;-82
2021/09/24 10:17:26;;;;;;;;;;;;;;;18.26;59.69;96719.09;5076281;28;19951;-82
2021/09/24 10:19:54;;;;;;;;;;;;;;;18.33;60.35;96724.16;5076152;28;19950;-82
2021/09/24 10:22:21;;;;;;;;;;;;;;;18.36;57.13;96697.91;5075918;28;19949;-82
2021/09/24 10:24:47;;;;;;;;;;;;;;;18.40;59.23;96716.78;5076195;28;19945;-82
2021/09/24 10:27:17;;;;;;;;;;;;;;;18.44;58.13;96707.22;5074763;28;20466;-82
2021/09/24 10:29:44;;;;;;;;;;;;;;;18.52;58.97;96713.88;5075875;28;19946;-82
2021/09/24 10:32:15;;;;;;;;;;;;;;;18.61;57.47;96691.84;5075836;28;19969;-82
2021/09/24 10:34:51;;;;;;;;;;;;;;;18.73;58.67;96704.91;5075899;28;19953;-82
2021/09/24 10:37:17;;;;;;;;;;;;;;;18.86;60.16;96720.34;5062091;28;19956;-82
2021/09/24 10:39:44;;;;;;;;;;;;;;;18.96;58.89;96698.31;5075755;28;19955;-82
2021/09/24 10:42:28;;;;;;;;;;;;;;;19.05;58.61;96693.25;5075282;28;20432;-82
2021/09/24 10:44:57;;;;;;;;;;;;;;;19.21;59.11;96691.38;5075423;28;20409;-82
2021/09/24 10:47:42;;;;;;;;;;;;;;;19.33;58.30;96689.25;5075535;28;19954;-80
2021/09/24 10:50:26;;;;;;;;;;;;;;;19.52;57.71;96691.34;5075418;28;20314;-80
2021/09/24 10:53:11;;;;;;;;;;;;;;;19.70;56.66;96674.84;5075454;28;20413;-80
2021/09/24 10:55:57;;;;;;;;;;;;;;;19.90;56.99;96675.84;5074855;28;20356;-80
2021/09/24 10:58:23;;;;;;;;;;;;;;;20.06;54.86;96651.53;5071132;28;19960;-76
2021/09/24 11:00:49;;;;;;;;;;;;;;;20.23;53.07;96627.22;5075317;28;19946;-76
2021/09/24 11:03:18;;;;;;;;;;;;;;;20.42;53.72;96645.25;5075303;28;19954;-76
2021/09/24 11:06:03;;;;;;;;;;;;;;;20.52;51.66;96636.41;5075271;28;19948;-78
2021/09/24 11:08:29;;;;;;;;;;;;;;;20.61;51.03;96640.88;5074781;28;19958;-78
2021/09/24 11:11:02;;;;;;;;;;;;;;;20.75;51.20;96645.59;5075463;28;19962;-78
2021/09/24 11:13:28;;;;;;;;;;;;;;;20.80;48.28;96630.34;5075267;28;19954;-78
2021/09/24 11:15:58;;;;;;;;;;;;;;;20.78;50.55;96651.13;5074810;28;20415;-78
2021/09/24 11:18:43;;;;;;;;;;;;;;;20.84;49.16;96643.91;5074777;28;20383;-78
2021/09/24 11:21:09;;;;;;;;;;;;;;;20.85;50.59;96654.31;5075030;28;19973;-78
2021/09/24 11:23:36;;;;;;;;;;;;;;;20.88;49.87;96651.06;5075065;28;20290;-81
2021/09/24 11:26:10;;;;;;;;;;;;;;;20.91;51.17;96664.91;5075347;28;19961;-79
2021/09/24 11:28:36;;;;;;;;;;;;;;;21.03;50.69;96662.69;5062968;28;20428;-78
2021/09/24 11:31:02;;;;;;;;;;;;;;;21.20;50.87;96654.28;5074534;28;19993;-79
2021/09/24 11:33:42;;;;;;;;;;;;;;;21.20;47.27;96643.59;5073286;28;19957;-79
2021/09/24 11:36:08;;;;;;;;;;;;;;;21.20;48.49;96657.72;5074651;28;20030;-78
2021/09/24 11:38:34;;;;;;;;;;;;;;;21.21;47.39;96645.19;5074492;28;19951;-78
2021/09/24 11:41:01;;;;;;;;;;;;;;;21.32;49.87;96659.25;5074594;28;20286;-78
2021/09/24 11:43:28;;;;;;;;;;;;;;;21.40;50.52;96669.31;5074291;28;19957;-78
2021/09/24 11:45:55;;;;;;;;;;;;;;;21.57;49.62;96659.00;5073745;28;19967;-78
2021/09/24 11:48:34;;;;;;;;;;;;;;;21.72;47.21;96639.34;5074819;28;20308;-78
2021/09/24 11:51:08;;;;;;;;;;;;;;;21.85;47.17;96637.88;5073804;28;19976;-78
2021/09/24 11:53:56;;;;;;;;;;;;;;;21.81;47.47;96650.97;5074430;28;19955;-78
2021/09/24 11:56:35;;;;;;;;;;;;;;;21.84;45.75;96630.97;5058690;28;19947;-78
2021/09/24 11:59:06;;;;;;;;;;;;;;;21.91;46.30;96634.06;5073585;28;19953;-78
2021/09/24 12:01:32;;;;;;;;;;;;;;;22.03;47.21;96641.66;5073997;28;19960;-78
2021/09/24 12:03:58;;;;;;;;;;;;;;;22.15;48.91;96650.03;5074068;28;19953;-77
2021/09/24 12:06:27;;;;;;;;;;;;;;;22.26;47.85;96637.38;5073915;28;20414;-78
2021/09/24 12:08:59;;;;;;;;;;;;;;;22.33;47.67;96642.38;5074066;28;19954;-78
2021/09/24 12:11:26;;;;;;;;;;;;;;;22.41;46.44;96628.38;5074214;28;19979;-77
2021/09/24 12:14:00;;;;;;;;;;;;;;;22.32;44.99;96630.09;5073774;28;20316;-78
2021/09/24 12:16:30;;;;;;;;;;;;;;;22.29;44.42;96618.09;5073789;28;19965;-78
2021/09/24 12:18:58;;;;;;;;;;;;;;;22.31;46.96;96644.53;5073558;28;19965;-78
2021/09/24 12:21:28;;;;;;;;;;;;;;;22.38;45.72;96619.03;5074249;28;20326;-78
2021/09/24 12:23:55;;;;;;;;;;;;;;;22.45;47.15;96627.50;5073595;28;19954;-78
2021/09/24 12:26:37;;;;;;;;;;;;;;;22.57;46.13;96616.34;5073678;28;19952;-77
2021/09/24 12:29:08;;;;;;;;;;;;;;;22.63;47.19;96617.84;5065857;28;19964;-78
2021/09/24 12:31:39;;;;;;;;;;;;;;;22.69;45.42;96618.56;5073705;28;19969;-78
2021/09/24 12:34:06;;;;;;;;;;;;;;;22.69;46.00;96618.56;5073953;28;20409;-78
2021/09/24 12:36:32;;;;;;;;;;;;;;;22.76;44.97;96608.28;5073014;28;19961;-78
2021/09/24 12:39:18;;;;;;;;;;;;;;;22.75;44.90;96613.94;5073856;28;19951;-78
2021/09/24 12:41:44;;;;;;;;;;;;;;;22.81;44.88;96607.44;5067243;28;19955;-78
2021/09/24 12:44:10;;;;;;;;;;;;;;;22.89;46.41;96617.47;5073706;28;19961;-78
2021/09/24 12:46:43;;;;;;;;;;;;;;;22.93;44.71;96601.59;5074263;28;19965;-77
2021/09/24 12:49:10;;;;;;;;;;;;;;;22.90;44.06;96586.94;5073187;28;19988;-77
2021/09/24 12:51:36;;;;;;;;;;;;;;;22.95;44.50;96594.91;5073711;28;19966;-78